Time;durP1;ratioP1;P1;durP2;ratioP2;P2;SDS_P1;SDS_P2;PMS_P1;PMS_P2;Temp;Humidity;BMP_temperature;BMP_pressure;BME280_temperature;BME280_humidity;BME280_pressure;Samples;Min_cycle;Max_cycle;Signal;HPM_P1;HPM_P2
2022/12/06 00:02:26;;;;;;;29.90;19.30;;;3.00;99.90;;;;;;5065124;28;20198;-70
2022/12/06 00:04:53;;;;;;;27.20;17.53;;;3.00;99.90;;;;;;5063122;28;20704;-68
2022/12/06 00:07:21;;;;;;;26.60;17.53;;;3.00;99.90;;;;;;5069992;28;20208;-69
2022/12/06 00:09:48;;;;;;;29.40;17.83;;;3.00;99.90;;;;;;5067515;28;20212;-68
2022/12/06 00:12:14;;;;;;;29.30;17.63;;;3.00;99.90;;;;;;5069795;28;20585;-69
2022/12/06 00:14:41;;;;;;;25.30;17.47;;;3.00;99.90;;;;;;5067319;28;20239;-69
2022/12/06 00:17:08;;;;;;;28.23;18.10;;;2.90;99.90;;;;;;5069617;28;20292;-68
2022/12/06 00:19:35;;;;;;;28.93;18.63;;;3.00;99.90;;;;;;5066096;28;20205;-68
2022/12/06 00:22:02;;;;;;;24.63;17.73;;;2.90;99.90;;;;;;5068675;28;20212;-68
2022/12/06 00:24:30;;;;;;;28.80;17.77;;;2.90;99.90;;;;;;5069861;28;20204;-70
2022/12/06 00:26:56;;;;;;;28.60;18.30;;;2.90;99.90;;;;;;5066850;28;20709;-68
2022/12/06 00:29:24;;;;;;;27.07;17.73;;;2.90;99.90;;;;;;5067574;28;20212;-69
2022/12/06 00:31:51;;;;;;;26.73;18.37;;;2.90;99.90;;;;;;5068260;28;20235;-68
2022/12/06 00:34:17;;;;;;;28.50;16.83;;;2.90;99.90;;;;;;5069759;28;20617;-69
2022/12/06 00:36:45;;;;;;;29.60;18.27;;;2.90;99.90;;;;;;5071792;28;20201;-69
2022/12/06 00:39:14;;;;;;;25.63;17.07;;;2.80;99.90;;;;;;5073306;28;20331;-69
2022/12/06 00:41:42;;;;;;;33.87;18.97;;;2.90;99.90;;;;;;5073209;28;20212;-70
2022/12/06 00:44:10;;;;;;;26.73;18.10;;;2.90;99.90;;;;;;5070326;28;20209;-70
2022/12/06 00:46:38;;;;;;;33.67;18.83;;;2.90;99.90;;;;;;5072651;28;20215;-69
2022/12/06 00:49:07;;;;;;;27.97;19.30;;;2.80;99.90;;;;;;5072555;28;20213;-69
2022/12/06 00:51:35;;;;;;;30.03;19.30;;;2.90;99.90;;;;;;5072292;28;20205;-70
2022/12/06 00:54:02;;;;;;;25.60;17.27;;;2.90;99.90;;;;;;5071457;28;20212;-69
2022/12/06 00:56:29;;;;;;;28.77;18.07;;;2.90;99.90;;;;;;5072016;28;20669;-68
2022/12/06 00:58:58;;;;;;;30.50;18.77;;;2.90;99.90;;;;;;5072277;28;20449;-69
2022/12/06 01:01:27;;;;;;;33.93;18.53;;;2.90;99.90;;;;;;5071905;28;20255;-69
2022/12/06 01:03:56;;;;;;;31.50;19.80;;;2.90;99.90;;;;;;5071161;28;20207;-69
2022/12/06 01:06:26;;;;;;;31.37;18.57;;;2.90;99.90;;;;;;5071625;28;20197;-69
2022/12/06 01:08:54;;;;;;;26.67;17.47;;;2.80;99.90;;;;;;5071162;28;20723;-69
2022/12/06 01:11:22;;;;;;;29.00;18.40;;;2.80;99.90;;;;;;5071428;28;20720;-68
2022/12/06 01:13:50;;;;;;;29.43;18.57;;;2.90;99.90;;;;;;5070256;28;20209;-67
2022/12/06 01:16:20;;;;;;;30.60;18.77;;;2.90;99.90;;;;;;5070342;28;20695;-69
2022/12/06 01:18:47;;;;;;;30.57;19.13;;;2.90;99.90;;;;;;5068412;28;20210;-69
2022/12/06 01:21:16;;;;;;;30.37;18.83;;;2.90;99.90;;;;;;5072623;28;20220;-68
2022/12/06 01:23:43;;;;;;;30.30;18.20;;;2.90;99.90;;;;;;5071914;28;20209;-71
2022/12/06 01:26:16;;;;;;;29.23;18.10;;;2.90;99.90;;;;;;5070167;28;20205;-68
2022/12/06 01:28:43;;;;;;;28.93;18.77;;;2.90;99.90;;;;;;5070946;28;20201;-70
2022/12/06 01:31:09;;;;;;;32.03;19.33;;;2.90;99.90;;;;;;5071949;28;20292;-70
2022/12/06 01:33:37;;;;;;;28.97;18.93;;;2.90;99.90;;;;;;5071465;28;20217;-69
2022/12/06 01:36:05;;;;;;;32.73;19.33;;;2.90;99.90;;;;;;5071536;28;20237;-70
2022/12/06 01:38:32;;;;;;;31.20;18.63;;;2.90;99.90;;;;;;5071111;28;20245;-69
2022/12/06 01:40:58;;;;;;;30.57;17.90;;;2.90;99.90;;;;;;5071093;28;20209;-69
2022/12/06 01:43:34;;;;;;;31.57;19.33;;;2.90;99.90;;;;;;5070313;28;20678;-69
2022/12/06 01:46:07;;;;;;;29.77;18.37;;;2.90;99.90;;;;;;5071733;28;20623;-69
2022/12/06 01:48:34;;;;;;;29.63;18.03;;;2.90;99.90;;;;;;5071113;28;20197;-69
2022/12/06 01:51:05;;;;;;;29.33;18.37;;;2.90;99.90;;;;;;5070130;28;20209;-69
2022/12/06 01:53:32;;;;;;;30.00;19.13;;;2.80;99.90;;;;;;5071439;28;20205;-69
2022/12/06 01:55:59;;;;;;;34.50;19.37;;;2.80;99.90;;;;;;5071810;28;20225;-70
2022/12/06 01:58:32;;;;;;;33.53;19.30;;;2.80;99.90;;;;;;5068995;28;20217;-69
2022/12/06 02:00:59;;;;;;;34.60;19.40;;;2.80;99.90;;;;;;5069960;28;20566;-69
2022/12/06 02:03:28;;;;;;;32.30;18.73;;;2.80;99.90;;;;;;5069075;28;20205;-70
2022/12/06 02:05:56;;;;;;;31.33;19.63;;;2.80;99.90;;;;;;5067514;28;20233;-71
2022/12/06 02:08:25;;;;;;;33.17;19.20;;;2.80;99.90;;;;;;5071138;28;20213;-70
2022/12/06 02:10:52;;;;;;;30.90;19.10;;;2.80;99.90;;;;;;5068859;28;20208;-70
2022/12/06 02:13:20;;;;;;;34.73;19.60;;;2.80;99.90;;;;;;5071992;28;20227;-70
2022/12/06 02:15:56;;;;;;;30.40;18.60;;;2.80;99.90;;;;;;5068110;28;20217;-69
2022/12/06 02:18:33;;;;;;;32.20;18.83;;;2.80;99.90;;;;;;5070208;28;20214;-69
2022/12/06 02:21:08;;;;;;;35.87;19.57;;;2.80;99.90;;;;;;5069173;28;20551;-70
2022/12/06 02:24:17;;;;;;;33.67;18.77;;;2.80;99.90;;;;;;5070187;28;20197;-69
2022/12/06 02:26:47;;;;;;;30.50;18.13;;;2.80;99.90;;;;;;5064355;28;20201;-69
2022/12/06 02:29:31;;;;;;;28.83;18.30;;;2.90;99.90;;;;;;5069407;28;20209;-69
2022/12/06 02:32:06;;;;;;;29.13;18.87;;;2.90;99.90;;;;;;5062752;28;20747;-70
2022/12/06 02:34:43;;;;;;;34.57;19.40;;;2.80;99.90;;;;;;5069489;28;20565;-69
2022/12/06 02:37:14;;;;;;;26.73;17.87;;;2.90;99.90;;;;;;5070985;28;20679;-69
2022/12/06 02:39:46;;;;;;;32.27;18.97;;;2.90;99.90;;;;;;5069254;28;20729;-69
2022/12/06 02:42:17;;;;;;;29.20;18.63;;;2.80;99.90;;;;;;5071583;28;20669;-70
2022/12/06 02:44:48;;;;;;;31.90;19.50;;;2.90;99.90;;;;;;5069911;28;20206;-69
2022/12/06 02:47:20;;;;;;;28.70;18.03;;;2.90;99.90;;;;;;5066957;28;20600;-70
2022/12/06 02:49:53;;;;;;;32.67;18.83;;;2.90;99.90;;;;;;5067414;28;20201;-70
2022/12/06 02:52:24;;;;;;;31.60;19.43;;;2.90;99.90;;;;;;5067231;28;20212;-69
2022/12/06 02:54:51;;;;;;;31.97;18.97;;;2.90;99.90;;;;;;5070561;28;20258;-69
2022/12/06 02:57:21;;;;;;;32.13;18.23;;;2.90;99.90;;;;;;5069929;28;20201;-68
2022/12/06 02:59:53;;;;;;;30.20;18.40;;;2.90;99.90;;;;;;5068501;28;20221;-69
2022/12/06 03:02:23;;;;;;;29.87;18.57;;;2.90;99.90;;;;;;5069932;28;20201;-69
2022/12/06 03:05:05;;;;;;;28.90;18.10;;;2.90;99.90;;;;;;5070221;28;20212;-68
2022/12/06 03:07:38;;;;;;;34.53;19.60;;;2.90;99.90;;;;;;5064598;28;20211;-69
2022/12/06 03:10:26;;;;;;;30.87;19.47;;;2.90;99.90;;;;;;5066794;28;20657;-69
2022/12/06 03:13:01;;;;;;;30.50;18.67;;;3.00;99.90;;;;;;5070686;28;20206;-69
2022/12/06 03:15:37;;;;;;;31.77;18.90;;;2.90;99.90;;;;;;5069283;28;20213;-70
2022/12/06 03:18:15;;;;;;;34.13;18.40;;;2.90;99.90;;;;;;5069649;28;20216;-69
2022/12/06 03:20:47;;;;;;;31.63;18.87;;;2.90;99.90;;;;;;5068940;28;20197;-70
2022/12/06 03:23:18;;;;;;;32.97;19.43;;;2.90;99.90;;;;;;5070679;28;20201;-68
2022/12/06 03:25:47;;;;;;;32.27;18.23;;;3.00;99.90;;;;;;5066992;28;20233;-70
2022/12/06 03:28:15;;;;;;;31.90;18.80;;;3.00;99.90;;;;;;5068818;28;20213;-69
2022/12/06 03:30:45;;;;;;;32.07;18.43;;;2.90;99.90;;;;;;5069627;28;20216;-70
2022/12/06 03:33:15;;;;;;;31.60;18.03;;;2.90;99.90;;;;;;5069672;28;20588;-69
2022/12/06 03:35:44;;;;;;;32.00;17.33;;;2.90;99.90;;;;;;5068769;28;20274;-69
2022/12/06 03:38:14;;;;;;;30.37;18.90;;;2.90;99.90;;;;;;5067056;28;20241;-69
2022/12/06 03:40:47;;;;;;;31.13;17.77;;;3.00;99.90;;;;;;5069461;28;20205;-68
2022/12/06 03:43:14;;;;;;;31.10;17.70;;;3.00;99.90;;;;;;5067316;28;20212;-69
2022/12/06 03:45:46;;;;;;;36.83;19.83;;;3.00;99.90;;;;;;5069316;28;20209;-70
2022/12/06 03:48:19;;;;;;;32.17;17.67;;;2.90;99.90;;;;;;5068151;28;20201;-69
2022/12/06 03:50:50;;;;;;;29.47;18.20;;;2.90;99.90;;;;;;5065613;28;20974;-69
2022/12/06 03:53:17;;;;;;;32.23;18.40;;;2.90;99.90;;;;;;5069059;28;20209;-70
2022/12/06 03:55:44;;;;;;;33.30;18.53;;;2.90;99.90;;;;;;5068543;28;20221;-70
2022/12/06 03:58:11;;;;;;;31.27;18.53;;;3.00;99.90;;;;;;5065793;28;20213;-69
2022/12/06 04:00:38;;;;;;;30.13;19.70;;;3.00;99.90;;;;;;5068152;28;20228;-70
2022/12/06 04:03:05;;;;;;;34.77;19.73;;;2.90;99.90;;;;;;5069204;28;20216;-70
2022/12/06 04:05:33;;;;;;;34.77;19.70;;;3.00;99.90;;;;;;5068782;28;20197;-68
2022/12/06 04:08:00;;;;;;;34.40;19.53;;;2.90;99.90;;;;;;5068256;28;20196;-69
2022/12/06 04:10:27;;;;;;;32.50;19.13;;;3.00;99.90;;;;;;5067274;28;20201;-70
2022/12/06 04:13:04;;;;;;;34.60;18.87;;;3.00;99.90;;;;;;5069006;28;20658;-70
2022/12/06 04:15:33;;;;;;;30.50;17.10;;;3.00;99.90;;;;;;5063961;28;20213;-71
2022/12/06 04:18:12;;;;;;;29.93;18.47;;;3.00;99.90;;;;;;5067736;28;20593;-71
2022/12/06 04:23:33;;;;;;;32.80;18.53;;;3.00;99.90;;;;;;5063201;28;20254;-69
2022/12/06 04:25:59;;;;;;;33.43;17.97;;;3.00;99.90;;;;;;5068700;28;20646;-70
2022/12/06 04:39:26;;;;;;;33.83;18.50;;;3.00;99.90;;;;;;5067912;28;20334;-69
2022/12/06 04:44:38;;;;;;;32.40;18.93;;;3.00;99.90;;;;;;5069408;28;20711;-69
2022/12/06 04:47:05;;;;;;;30.90;18.87;;;3.00;99.90;;;;;;5068813;28;20673;-70
2022/12/06 04:49:32;;;;;;;32.33;18.80;;;3.00;99.90;;;;;;5062914;28;20212;-69
2022/12/06 04:52:00;;;;;;;31.47;18.30;;;3.00;99.90;;;;;;5068146;28;20216;-69
2022/12/06 04:54:30;;;;;;;34.77;19.27;;;3.00;99.90;;;;;;5068325;28;20216;-71
2022/12/06 04:56:57;;;;;;;32.07;18.67;;;3.00;99.90;;;;;;5073422;28;20233;-70
2022/12/06 04:59:24;;;;;;;33.37;18.80;;;3.00;99.90;;;;;;5063774;28;20221;-69
2022/12/06 05:01:51;;;;;;;32.20;18.30;;;3.00;99.90;;;;;;5068950;28;20208;-70
2022/12/06 05:04:18;;;;;;;28.80;17.33;;;3.00;99.90;;;;;;5067606;28;20205;-70
2022/12/06 05:06:45;;;;;;;28.97;17.33;;;3.00;99.90;;;;;;5065350;28;20205;-71
2022/12/06 05:09:13;;;;;;;31.40;18.00;;;3.50;99.90;;;;;;5064374;28;20596;-69
2022/12/06 05:11:40;;;;;;;30.03;18.17;;;3.00;99.90;;;;;;5067743;28;20205;-70
2022/12/06 05:14:06;;;;;;;32.83;17.63;;;3.00;99.90;;;;;;5068983;28;20217;-70
2022/12/06 05:16:33;;;;;;;33.53;18.40;;;3.00;99.90;;;;;;5066345;28;20217;-68
2022/12/06 05:19:00;;;;;;;30.23;18.20;;;3.00;99.90;;;;;;5068760;28;20236;-69
2022/12/06 05:21:27;;;;;;;31.20;17.90;;;3.00;99.90;;;;;;5069662;28;20513;-69
2022/12/06 05:23:55;;;;;;;25.10;16.70;;;3.00;99.90;;;;;;5071988;28;20209;-69
2022/12/06 05:26:25;;;;;;;30.93;15.80;;;3.00;99.90;;;;;;5069082;28;20201;-70
2022/12/06 05:28:52;;;;;;;30.37;17.70;;;3.00;99.90;;;;;;5070134;28;20212;-69
2022/12/06 05:31:20;;;;;;;27.93;16.27;;;3.00;99.90;;;;;;5068635;28;20209;-71
2022/12/06 05:33:47;;;;;;;30.27;17.10;;;3.00;99.90;;;;;;5071336;28;20221;-69
2022/12/06 05:36:17;;;;;;;24.47;15.47;;;3.00;99.90;;;;;;5070748;28;20252;-70
2022/12/06 05:38:44;;;;;;;28.60;16.57;;;2.90;99.90;;;;;;5065667;28;20236;-70
2022/12/06 05:41:11;;;;;;;29.63;16.67;;;2.90;99.90;;;;;;5070798;28;20217;-70
2022/12/06 05:43:39;;;;;;;27.63;16.63;;;2.90;99.90;;;;;;5069094;28;20255;-70
2022/12/06 05:46:06;;;;;;;26.63;16.47;;;2.90;99.90;;;;;;5070791;28;20205;-70
2022/12/06 05:48:34;;;;;;;23.30;15.67;;;2.90;99.90;;;;;;5070985;28;20504;-71
2022/12/06 05:51:01;;;;;;;28.27;16.50;;;2.90;99.90;;;;;;5070345;28;20213;-69
2022/12/06 05:53:28;;;;;;;24.97;15.90;;;2.90;99.90;;;;;;5070759;28;20209;-69
2022/12/06 05:55:54;;;;;;;27.63;16.37;;;2.90;99.90;;;;;;5068423;28;20225;-70
2022/12/06 05:58:21;;;;;;;30.37;16.90;;;2.90;99.90;;;;;;5069907;28;20206;-70
2022/12/06 06:00:50;;;;;;;27.73;15.53;;;2.90;99.90;;;;;;5068291;28;20689;-69
2022/12/06 06:03:18;;;;;;;25.03;15.13;;;2.80;99.90;;;;;;5068903;28;20208;-70
2022/12/06 06:05:46;;;;;;;25.10;14.87;;;2.80;99.90;;;;;;5065955;28;20689;-70
2022/12/06 06:08:14;;;;;;;24.07;14.37;;;2.80;99.90;;;;;;5069434;28;20212;-70
2022/12/06 06:10:41;;;;;;;24.63;14.50;;;2.80;99.90;;;;;;5071873;28;20201;-71
2022/12/06 06:13:08;;;;;;;25.30;14.57;;;2.80;99.90;;;;;;5055228;28;20634;-71
2022/12/06 06:15:35;;;;;;;21.70;13.43;;;2.80;99.90;;;;;;5076482;28;20198;-72
2022/12/06 06:18:03;;;;;;;24.17;14.30;;;2.70;99.90;;;;;;5075039;28;20581;-77
2022/12/06 06:20:30;;;;;;;21.60;13.43;;;2.70;99.90;;;;;;5075626;28;20711;-73
2022/12/06 06:22:57;;;;;;;27.40;20.00;;;2.70;99.90;;;;;;5074634;28;20461;-70
2022/12/06 06:25:24;;;;;;;25.30;16.63;;;2.70;99.90;;;;;;5065573;28;20470;-68
2022/12/06 06:27:51;;;;;;;25.23;15.23;;;2.70;99.90;;;;;;5066714;28;20228;-72
2022/12/06 06:30:18;;;;;;;26.60;18.50;;;2.80;99.90;;;;;;5067095;28;20458;-70
2022/12/06 06:32:45;;;;;;;25.03;16.17;;;2.80;99.90;;;;;;5067395;28;20228;-69
2022/12/06 06:35:13;;;;;;;28.30;17.27;;;2.80;99.90;;;;;;5064330;28;20550;-68
2022/12/06 06:37:40;;;;;;;21.83;14.67;;;2.80;99.90;;;;;;5066943;28;20253;-70
2022/12/06 06:40:08;;;;;;;28.08;19.55;;;2.80;99.90;;;;;;5073429;28;20434;-72
2022/12/06 06:42:34;;;;;;;22.77;14.30;;;2.80;99.90;;;;;;5063932;28;20228;-72
2022/12/06 06:45:01;;;;;;;24.03;15.10;;;2.80;99.90;;;;;;5069499;28;20202;-69
2022/12/06 06:47:28;;;;;;;22.60;14.43;;;2.80;99.90;;;;;;5071013;28;20631;-68
2022/12/06 06:49:55;;;;;;;25.03;14.27;;;2.80;99.90;;;;;;5069535;28;20216;-71
2022/12/06 06:52:23;;;;;;;23.00;15.00;;;2.80;99.90;;;;;;5066800;28;20469;-71
2022/12/06 06:54:49;;;;;;;21.80;13.87;;;2.80;99.90;;;;;;5066926;28;20593;-69
2022/12/06 06:57:17;;;;;;;22.13;13.87;;;2.80;99.90;;;;;;5067602;28;20217;-69
2022/12/06 06:59:44;;;;;;;22.10;14.17;;;2.90;99.90;;;;;;5065150;28;20687;-71
2022/12/06 07:02:12;;;;;;;28.75;18.63;;;2.90;99.90;;;;;;5062231;28;20913;-72
2022/12/06 07:04:39;;;;;;;22.13;14.77;;;2.80;99.90;;;;;;5068831;28;20744;-68
2022/12/06 07:07:06;;;;;;;20.00;14.40;;;2.80;99.90;;;;;;5070197;28;20214;-72
2022/12/06 07:09:34;;;;;;;19.90;14.13;;;2.80;99.90;;;;;;5068395;28;20202;-66
2022/12/06 07:12:01;;;;;;;21.57;13.87;;;2.90;99.90;;;;;;5070141;28;20202;-72
2022/12/06 07:14:28;;;;;;;17.97;12.53;;;2.90;99.90;;;;;;5065749;28;20209;-71
2022/12/06 07:16:55;;;;;;;21.03;13.53;;;2.90;99.90;;;;;;5067824;28;20212;-71
2022/12/06 07:19:22;;;;;;;23.87;13.87;;;2.90;99.90;;;;;;5065093;28;20206;-70
2022/12/06 07:21:49;;;;;;;19.43;12.83;;;2.90;99.90;;;;;;5065904;28;20669;-68
2022/12/06 07:24:16;;;;;;;22.57;13.53;;;2.90;99.90;;;;;;5068498;28;20236;-70
2022/12/06 07:26:44;;;;;;;20.37;12.70;;;2.90;99.90;;;;;;5069551;28;20208;-71
2022/12/06 07:29:11;;;;;;;19.63;12.33;;;2.80;99.90;;;;;;5069291;28;20236;-70
2022/12/06 07:31:39;;;;;;;18.17;12.13;;;2.80;99.90;;;;;;5068331;28;20216;-70
2022/12/06 07:34:05;;;;;;;20.20;12.60;;;2.80;99.90;;;;;;5066702;28;20301;-70
2022/12/06 07:36:32;;;;;;;18.10;12.40;;;2.70;99.90;;;;;;5068236;28;20217;-71
2022/12/06 07:39:00;;;;;;;17.47;12.03;;;2.80;99.90;;;;;;5069724;28;20233;-70
2022/12/06 07:47:05;;;;;;;17.53;12.10;;;2.70;99.90;;;;;;5049418;28;20585;-70
2022/12/06 07:49:32;;;;;;;18.37;11.10;;;2.70;99.90;;;;;;5070050;28;20607;-72
2022/12/06 07:51:59;;;;;;;19.70;13.27;;;2.80;99.90;;;;;;5069832;28;20205;-70
2022/12/06 07:54:26;;;;;;;18.10;12.10;;;2.70;99.90;;;;;;5061488;28;20265;-70
2022/12/06 07:56:55;;;;;;;18.20;11.97;;;2.80;99.90;;;;;;5067752;28;20229;-69
2022/12/06 07:59:23;;;;;;;15.83;11.23;;;2.80;99.90;;;;;;5065417;28;20229;-72
2022/12/06 08:01:50;;;;;;;19.20;12.00;;;2.80;99.90;;;;;;5066970;28;20201;-70
2022/12/06 08:04:17;;;;;;;21.33;12.90;;;2.80;99.90;;;;;;5072747;28;20209;-70
2022/12/06 08:06:44;;;;;;;20.80;13.50;;;2.80;99.90;;;;;;5069087;28;20429;-72
2022/12/06 08:09:11;;;;;;;18.80;13.07;;;2.80;99.90;;;;;;5072957;28;20209;-71
2022/12/06 08:11:38;;;;;;;20.03;13.60;;;2.90;99.90;;;;;;5067013;28;20205;-69
2022/12/06 08:14:05;;;;;;;21.00;14.07;;;3.00;99.90;;;;;;5068881;28;20626;-67
2022/12/06 08:16:33;;;;;;;21.27;14.70;;;3.00;99.90;;;;;;5069987;28;20716;-67
2022/12/06 08:19:01;;;;;;;22.70;14.47;;;3.00;99.90;;;;;;5069459;28;20209;-67
2022/12/06 08:21:28;;;;;;;25.03;15.27;;;2.90;99.90;;;;;;5068708;28;20213;-72
2022/12/06 08:23:55;;;;;;;26.57;16.37;;;2.90;99.90;;;;;;5066288;28;20577;-72
2022/12/06 08:26:22;;;;;;;25.20;15.07;;;2.90;99.90;;;;;;5062585;28;20216;-73
2022/12/06 08:28:49;;;;;;;29.57;16.57;;;2.90;99.90;;;;;;5069540;28;20198;-72
2022/12/06 08:31:19;;;;;;;25.40;15.17;;;2.90;99.90;;;;;;5060592;28;20210;-75
2022/12/06 08:33:47;;;;;;;27.07;15.57;;;2.90;99.90;;;;;;5066145;28;20251;-73
2022/12/06 08:36:16;;;;;;;29.17;16.50;;;2.90;99.90;;;;;;5068011;28;20646;-74
2022/12/06 08:38:44;;;;;;;24.87;15.53;;;2.90;99.90;;;;;;5068998;28;20241;-75
2022/12/06 08:41:54;;;;;;;25.80;16.67;;;2.90;99.90;;;;;;5064501;28;20236;-74
2022/12/06 08:43:59;;;;;;;33.10;16.73;;;2.90;99.90;;;;;;5062248;28;20237;-73
2022/12/06 08:46:27;;;;;;;27.27;16.63;;;2.90;99.90;;;;;;5064357;28;20197;-74
2022/12/06 08:48:55;;;;;;;28.07;17.23;;;2.90;99.90;;;;;;5066033;28;20208;-75
2022/12/06 08:51:22;;;;;;;28.90;17.37;;;2.90;99.90;;;;;;5066654;28;20201;-73
2022/12/06 08:53:49;;;;;;;31.03;18.03;;;2.90;99.90;;;;;;5068223;28;20691;-75
2022/12/06 08:56:16;;;;;;;30.47;17.80;;;2.90;99.90;;;;;;5071070;28;20205;-74
2022/12/06 08:58:43;;;;;;;31.03;17.70;;;2.90;99.90;;;;;;5072933;28;20641;-75
2022/12/06 09:01:11;;;;;;;29.70;17.70;;;2.90;99.90;;;;;;5071313;28;20225;-74
2022/12/06 09:03:38;;;;;;;27.70;16.83;;;2.90;99.90;;;;;;5069504;28;20209;-75
2022/12/06 09:06:08;;;;;;;32.33;18.73;;;2.90;99.90;;;;;;5072810;28;20212;-77
2022/12/06 09:08:35;;;;;;;30.57;18.27;;;3.00;99.90;;;;;;5072895;28;20271;-72
2022/12/06 09:11:02;;;;;;;29.60;17.50;;;3.00;99.90;;;;;;5071568;28;20209;-72
2022/12/06 09:13:29;;;;;;;29.30;17.53;;;3.00;99.90;;;;;;5071670;28;20221;-73
2022/12/06 09:15:55;;;;;;;29.37;16.93;;;3.00;99.90;;;;;;5072902;28;20236;-72
2022/12/06 09:18:22;;;;;;;27.90;16.90;;;3.00;99.90;;;;;;5072484;28;20229;-72
2022/12/06 09:20:49;;;;;;;30.47;17.73;;;3.10;99.90;;;;;;5072982;28;20603;-71
2022/12/06 09:23:17;;;;;;;30.73;18.87;;;3.00;99.90;;;;;;5070950;28;20657;-71
2022/12/06 09:25:44;;;;;;;28.93;17.27;;;3.00;99.90;;;;;;5071996;28;20646;-70
2022/12/06 09:28:11;;;;;;;31.43;17.60;;;3.10;99.90;;;;;;5068662;28;20232;-75
2022/12/06 09:30:38;;;;;;;31.23;19.30;;;3.10;99.90;;;;;;5069050;28;20698;-73
2022/12/06 09:33:05;;;;;;;30.20;17.80;;;3.10;99.90;;;;;;5070512;28;20541;-69
2022/12/06 09:35:32;;;;;;;29.27;17.20;;;3.10;99.90;;;;;;5070680;28;20213;-68
2022/12/06 09:38:02;;;;;;;29.83;18.70;;;3.20;99.90;;;;;;5067869;28;20241;-69
2022/12/06 09:40:33;;;;;;;32.87;18.00;;;3.20;99.90;;;;;;5066893;28;20201;-69
2022/12/06 09:43:26;;;;;;;28.90;18.30;;;3.30;99.90;;;;;;5069045;28;20284;-68
2022/12/06 09:46:08;;;;;;;31.33;18.10;;;3.30;99.90;;;;;;5071385;28;20564;-67
2022/12/06 09:49:05;;;;;;;26.73;16.13;;;3.30;99.90;;;;;;5068604;28;20201;-70
2022/12/06 09:51:54;;;;;;;27.33;16.23;;;3.40;99.90;;;;;;5048232;28;20510;-76
2022/12/06 09:54:37;;;;;;;27.70;17.07;;;3.40;99.90;;;;;;5070035;28;20574;-71
2022/12/06 09:57:12;;;;;;;28.63;17.13;;;3.40;99.90;;;;;;5068219;28;20662;-70
2022/12/06 09:59:49;;;;;;;30.63;18.10;;;3.40;99.90;;;;;;5070685;28;20252;-70
2022/12/06 10:02:28;;;;;;;32.37;18.23;;;3.40;99.90;;;;;;5070631;28;20287;-71
2022/12/06 10:05:25;;;;;;;32.53;18.10;;;3.40;99.90;;;;;;5072305;28;20211;-71
2022/12/06 10:08:01;;;;;;;31.97;17.73;;;3.40;99.90;;;;;;5069805;28;20197;-70
2022/12/06 10:10:38;;;;;;;27.27;17.73;;;3.40;99.90;;;;;;5070918;28;20204;-70
2022/12/06 10:13:13;;;;;;;32.40;18.60;;;3.40;99.90;;;;;;5071884;28;20679;-70
2022/12/06 10:15:52;;;;;;;29.47;17.37;;;3.30;99.90;;;;;;5069572;28;20224;-69
2022/12/06 10:18:34;;;;;;;33.10;19.07;;;3.40;99.90;;;;;;5066850;28;20217;-70
2022/12/06 10:21:13;;;;;;;32.10;19.67;;;3.30;99.90;;;;;;5069344;28;20541;-71
2022/12/06 10:23:55;;;;;;;31.63;18.80;;;3.20;99.90;;;;;;5068514;28;20193;-73
2022/12/06 10:26:30;;;;;;;31.30;17.00;;;3.20;99.90;;;;;;5070189;28;20202;-72
2022/12/06 10:29:09;;;;;;;31.97;19.10;;;3.20;99.90;;;;;;5067907;28;20196;-69
2022/12/06 10:31:45;;;;;;;28.10;17.83;;;3.20;99.90;;;;;;5070703;28;20288;-68
2022/12/06 10:34:19;;;;;;;31.00;18.63;;;3.20;99.90;;;;;;5068905;28;20201;-71
2022/12/06 10:36:59;;;;;;;29.70;18.00;;;3.20;99.90;;;;;;5069456;28;20198;-71
2022/12/06 10:39:32;;;;;;;34.40;18.93;;;3.20;99.90;;;;;;5070288;28;20204;-71
2022/12/06 10:42:04;;;;;;;36.40;18.83;;;3.30;99.90;;;;;;5072192;28;20219;-68
2022/12/06 10:44:37;;;;;;;31.23;19.43;;;3.30;99.90;;;;;;5068625;28;20194;-70
2022/12/06 10:47:11;;;;;;;36.53;21.57;;;3.40;99.90;;;;;;5069701;28;20208;-72
2022/12/06 10:49:48;;;;;;;33.83;19.23;;;3.40;99.90;;;;;;5069771;28;20221;-70
2022/12/06 10:52:30;;;;;;;31.50;18.23;;;3.40;99.90;;;;;;5066467;28;20542;-72
2022/12/06 10:55:09;;;;;;;35.27;19.90;;;3.50;99.90;;;;;;5067870;28;20204;-70
2022/12/06 10:57:43;;;;;;;31.97;17.57;;;3.50;99.90;;;;;;5068500;28;20305;-71
2022/12/06 11:00:17;;;;;;;31.77;18.40;;;3.50;99.90;;;;;;5058696;28;20598;-71
2022/12/06 11:02:50;;;;;;;32.33;17.77;;;3.50;99.90;;;;;;5060760;28;20746;-72
2022/12/06 11:05:22;;;;;;;31.10;18.93;;;3.50;99.90;;;;;;5067060;28;20296;-72
2022/12/06 11:07:56;;;;;;;37.13;19.70;;;3.50;99.90;;;;;;5060971;28;20199;-72
2022/12/06 11:10:26;;;;;;;34.37;19.50;;;3.50;99.90;;;;;;5064091;28;20709;-71
2022/12/06 11:12:58;;;;;;;35.17;18.27;;;3.50;99.90;;;;;;5065890;28;20197;-71
2022/12/06 11:15:31;;;;;;;32.27;19.20;;;3.40;99.90;;;;;;5060685;28;20580;-71
2022/12/06 11:18:04;;;;;;;36.47;19.30;;;3.40;99.90;;;;;;5063753;28;20279;-71
2022/12/06 11:20:38;;;;;;;38.77;19.60;;;3.40;99.90;;;;;;5064933;28;20238;-70
2022/12/06 11:23:12;;;;;;;40.17;21.00;;;3.30;99.90;;;;;;5066852;28;20293;-71
2022/12/06 11:25:47;;;;;;;41.73;20.73;;;3.30;99.90;;;;;;5068187;28;20205;-72
2022/12/06 11:28:25;;;;;;;37.23;19.90;;;3.30;99.90;;;;;;5067548;28;20189;-72
2022/12/06 11:30:55;;;;;;;38.33;20.03;;;3.30;99.90;;;;;;5068369;28;20293;-73
2022/12/06 11:33:33;;;;;;;34.70;18.43;;;3.30;99.90;;;;;;5066605;28;20220;-72
2022/12/06 11:36:02;;;;;;;40.53;18.77;;;3.30;99.90;;;;;;5067167;28;20563;-74
2022/12/06 11:38:30;;;;;;;39.60;18.90;;;3.30;99.90;;;;;;5068910;28;20241;-73
2022/12/06 11:40:57;;;;;;;35.17;19.47;;;3.30;99.90;;;;;;5069739;28;20211;-72
2022/12/06 11:43:27;;;;;;;39.70;18.97;;;3.30;99.90;;;;;;5069050;28;20572;-72
2022/12/06 11:45:56;;;;;;;36.13;19.50;;;3.30;99.90;;;;;;5070657;28;20207;-72
2022/12/06 11:48:25;;;;;;;35.03;19.00;;;3.40;99.90;;;;;;5067840;28;20194;-72
2022/12/06 11:50:53;;;;;;;30.27;17.90;;;3.40;99.90;;;;;;5063042;28;20205;-74
2022/12/06 11:53:26;;;;;;;35.93;17.73;;;3.40;99.90;;;;;;5062575;28;20212;-72
2022/12/06 11:55:58;;;;;;;32.27;18.30;;;3.40;99.90;;;;;;5066272;28;20288;-71
2022/12/06 11:58:30;;;;;;;34.60;17.30;;;3.40;99.90;;;;;;5067441;28;20224;-69
2022/12/06 12:01:01;;;;;;;33.53;17.27;;;3.40;99.90;;;;;;5058841;28;20228;-71
2022/12/06 12:03:30;;;;;;;35.67;19.60;;;3.40;99.90;;;;;;5062398;28;20200;-71
2022/12/06 12:06:18;;;;;;;31.80;17.50;;;3.40;99.90;;;;;;5068139;28;20673;-72
2022/12/06 12:08:57;;;;;;;32.53;17.73;;;3.40;99.90;;;;;;5067965;28;20285;-70
2022/12/06 12:11:27;;;;;;;32.40;18.40;;;3.30;99.90;;;;;;5067903;28;20201;-70
2022/12/06 12:13:58;;;;;;;32.87;18.90;;;3.30;99.90;;;;;;5068122;28;20190;-68
2022/12/06 12:16:30;;;;;;;36.67;18.97;;;3.30;99.90;;;;;;5066989;28;20223;-66
2022/12/06 12:18:59;;;;;;;35.10;18.80;;;3.40;99.90;;;;;;5068563;28;20217;-69
2022/12/06 12:21:35;;;;;;;36.70;18.97;;;3.40;99.90;;;;;;5069390;28;20216;-67
2022/12/06 12:24:02;;;;;;;36.97;19.30;;;3.40;99.90;;;;;;5069255;28;20287;-72
2022/12/06 12:26:37;;;;;;;34.47;19.87;;;3.40;99.90;;;;;;5068283;28;20198;-72
2022/12/06 12:29:13;;;;;;;37.57;20.67;;;3.30;99.90;;;;;;5067310;28;20208;-70
2022/12/06 12:31:52;;;;;;;37.70;21.00;;;3.30;99.90;;;;;;5069325;28;20295;-70
2022/12/06 12:34:20;;;;;;;37.30;19.30;;;3.30;99.90;;;;;;5065105;28;20212;-70
2022/12/06 12:36:49;;;;;;;40.70;20.93;;;3.40;99.90;;;;;;5067338;28;20201;-72
2022/12/06 12:39:25;;;;;;;41.80;21.53;;;3.40;99.90;;;;;;5068120;28;20219;-73
2022/12/06 12:41:52;;;;;;;47.03;23.70;;;3.40;99.90;;;;;;5063413;28;20204;-71
2022/12/06 12:44:23;;;;;;;42.93;21.27;;;3.40;99.90;;;;;;5066995;28;20207;-72
2022/12/06 12:46:55;;;;;;;43.53;23.90;;;3.40;99.90;;;;;;5066770;28;20541;-72
2022/12/06 12:49:25;;;;;;;48.73;23.43;;;3.50;99.90;;;;;;5066593;28;20206;-71
2022/12/06 12:51:52;;;;;;;42.53;21.93;;;3.50;99.90;;;;;;5068959;28;20201;-72
2022/12/06 12:54:22;;;;;;;45.50;21.03;;;3.50;99.90;;;;;;5069055;28;20209;-71
2022/12/06 12:56:50;;;;;;;45.07;23.43;;;3.50;99.90;;;;;;5069186;28;20631;-73
2022/12/06 12:59:19;;;;;;;41.50;21.53;;;3.50;99.90;;;;;;5068114;28;20224;-72
2022/12/06 13:01:51;;;;;;;42.13;22.10;;;3.50;99.90;;;;;;5068354;28;20531;-71
2022/12/06 13:04:40;;;;;;;40.37;20.13;;;3.50;99.90;;;;;;5068896;28;20205;-70
2022/12/06 13:07:14;;;;;;;39.50;20.17;;;3.50;99.90;;;;;;5067963;28;20203;-72
2022/12/06 13:09:46;;;;;;;37.83;20.50;;;3.60;99.90;;;;;;5069054;28;20200;-72
2022/12/06 13:12:19;;;;;;;45.33;23.97;;;3.60;99.90;;;;;;5068812;28;20205;-72
2022/12/06 13:14:51;;;;;;;47.37;23.70;;;3.50;99.90;;;;;;5066800;28;20298;-70